createdAt,value
2022-08-05T00:00:23.791Z,100814.63
2022-08-05T00:02:54.424Z,100813.31
2022-08-05T00:06:01.698Z,100819.78
2022-08-05T00:08:19.954Z,100811.94
2022-08-05T00:11:00.313Z,100807.31
2022-08-05T00:13:38.921Z,100807.56
2022-08-05T00:16:12.857Z,100808.41
2022-08-05T00:18:44.323Z,100808.16
2022-08-05T00:21:14.423Z,100803.47
2022-08-05T00:23:46.870Z,100801.50
2022-08-05T00:26:22.350Z,100806.06
2022-08-05T00:28:51.115Z,100804.66
2022-08-05T00:31:54.379Z,100803.78
2022-08-05T00:34:53.260Z,100802.88
2022-08-05T00:39:37.032Z,100802.59
2022-08-05T00:42:31.653Z,100797.50
2022-08-05T00:45:01.468Z,100792.63
2022-08-05T00:47:31.676Z,100795.19
2022-08-05T00:50:18.654Z,100792.56
2022-08-05T00:52:48.593Z,100807.28
2022-08-05T00:55:16.170Z,100802.31
2022-08-05T00:57:57.891Z,100804.38
2022-08-05T01:00:29.033Z,100795.19
2022-08-05T01:02:59.957Z,100785.63
2022-08-05T01:05:28.159Z,100785.25
2022-08-05T01:08:40.148Z,100783.19
2022-08-05T01:10:51.732Z,100787.59
2022-08-05T01:13:58.716Z,100780.28
2022-08-05T01:16:50.655Z,100780.69
2022-08-05T01:19:36.755Z,100777.78
2022-08-05T01:22:47.659Z,100780.69
2022-08-05T01:25:40.841Z,100775.31
2022-08-05T01:28:28.166Z,100769.66
2022-08-05T01:31:09.276Z,100767.69
2022-08-05T01:33:48.941Z,100777.47
2022-08-05T01:36:18.887Z,100771.00
2022-08-05T01:38:49.989Z,100772.41
2022-08-05T01:41:22.784Z,100753.59
2022-08-05T01:43:54.790Z,100775.56
2022-08-05T01:46:41.556Z,100767.97
2022-08-05T01:49:24.203Z,100764.22
2022-08-05T01:51:58.855Z,100762.31
2022-08-05T01:54:46.030Z,100767.56
2022-08-05T01:58:13.860Z,100763.13
2022-08-05T02:00:12.545Z,100765.41
2022-08-05T02:02:46.517Z,100765.84
2022-08-05T02:05:23.758Z,100754.72
2022-08-05T02:08:00.222Z,100762.63
2022-08-05T02:10:36.856Z,100763.44
2022-08-05T02:13:18.403Z,100767.59
2022-08-05T02:16:03.307Z,100764.66
2022-08-05T02:18:41.949Z,100765.66
2022-08-05T02:21:13.256Z,100759.16
2022-08-05T02:23:46.428Z,100763.31
2022-08-05T02:26:19.711Z,100769.34
2022-08-05T02:28:50.822Z,100760.00
2022-08-05T02:31:24.516Z,100762.09
2022-08-05T02:33:58.694Z,100765.19
2022-08-05T02:36:31.649Z,100763.91
2022-08-05T02:39:03.219Z,100768.91
2022-08-05T02:41:42.884Z,100768.31
2022-08-05T02:44:24.798Z,100766.06
2022-08-05T02:47:00.247Z,100771.81
2022-08-05T02:49:36.842Z,100768.94
2022-08-05T02:52:11.512Z,100766.44
2022-08-05T02:54:42.811Z,100763.94
2022-08-05T02:58:10.839Z,100772.25
2022-08-05T03:00:13.050Z,100772.25
2022-08-05T03:02:43.129Z,100768.94
2022-08-05T03:05:14.273Z,100769.75
2022-08-05T03:08:01.396Z,100766.00
2022-08-05T03:10:32.421Z,100765.19
2022-08-05T03:15:28.626Z,100761.03
2022-08-05T03:17:57.779Z,100756.91
2022-08-05T03:20:27.022Z,100759.78
2022-08-05T03:22:57.619Z,100764.56
2022-08-05T03:25:32.483Z,100759.78
2022-08-05T03:28:18.458Z,100764.38
2022-08-05T03:30:49.558Z,100767.88
2022-08-05T03:33:18.843Z,100755.03
2022-08-05T03:35:47.991Z,100768.09
2022-08-05T03:38:16.053Z,100762.53
2022-08-05T03:40:48.590Z,100761.09
2022-08-05T03:44:08.499Z,100764.94
2022-08-05T03:46:08.294Z,100770.16
2022-08-05T03:48:36.712Z,100763.13
2022-08-05T03:52:37.709Z,100766.06
2022-08-05T03:55:53.957Z,100766.47
2022-08-05T03:57:16.481Z,100767.69
2022-08-05T03:59:55.887Z,100769.38
2022-08-05T04:02:39.182Z,100767.28
2022-08-05T04:05:14.106Z,100766.47
2022-08-05T04:07:57.232Z,100767.28
2022-08-05T04:10:37.609Z,100755.69
2022-08-05T04:13:07.842Z,100757.34
2022-08-05T04:15:36.748Z,100754.84
2022-08-05T04:18:06.816Z,100751.94
2022-08-05T04:20:35.212Z,100754.84
2022-08-05T04:23:03.869Z,100750.31
2022-08-05T04:25:58.000Z,100759.00
2022-08-05T04:28:30.867Z,100753.63
2022-08-05T04:31:01.350Z,100753.19
2022-08-05T04:34:17.510Z,100756.06
2022-08-05T04:36:46.304Z,100754.44
2022-08-05T04:39:05.860Z,100754.84
2022-08-05T04:41:37.802Z,100751.31
2022-08-05T04:44:09.426Z,100750.06
2022-08-05T04:46:39.020Z,100744.47
2022-08-05T04:49:12.391Z,100751.91
2022-08-05T04:51:45.743Z,100758.72
2022-08-05T04:54:14.979Z,100753.69
2022-08-05T04:56:43.681Z,100751.31
2022-08-05T04:59:22.042Z,100746.13
2022-08-05T05:02:07.331Z,100748.44
2022-08-05T05:04:48.084Z,100755.50
2022-08-05T05:07:18.793Z,100742.19
2022-08-05T05:09:56.852Z,100749.22
2022-08-05T05:12:24.615Z,100739.72
2022-08-05T05:14:55.867Z,100742.94
2022-08-05T05:17:24.820Z,100746.16
2022-08-05T05:20:13.265Z,100745.22
2022-08-05T05:22:41.436Z,100746.44
2022-08-05T05:25:16.935Z,100747.25
2022-08-05T05:27:53.743Z,100747.63
2022-08-05T05:30:29.203Z,100748.84
2022-08-05T05:33:00.702Z,100758.16
2022-08-05T05:35:37.977Z,100757.81
2022-08-05T05:38:09.353Z,100765.19
2022-08-05T05:40:49.715Z,100761.22
2022-08-05T05:43:27.451Z,100762.38
2022-08-05T05:46:15.681Z,100759.47
2022-08-05T05:48:44.499Z,100752.41
2022-08-05T05:51:15.812Z,100754.56
2022-08-05T05:53:54.665Z,100757.13
2022-08-05T05:56:32.347Z,100756.91
2022-08-05T05:59:07.770Z,100752.81
2022-08-05T06:01:40.966Z,100750.53
2022-08-05T06:04:25.512Z,100750.34
2022-08-05T06:06:53.360Z,100756.50
2022-08-05T06:09:35.396Z,100751.19
2022-08-05T06:12:12.037Z,100753.69
2022-08-05T06:14:42.465Z,100746.81
2022-08-05T06:17:53.093Z,100757.63
2022-08-05T06:20:00.667Z,100754.88
2022-08-05T06:22:33.298Z,100750.16
2022-08-05T06:25:59.695Z,100754.59
2022-08-05T06:28:12.552Z,100754.25
2022-08-05T06:30:39.216Z,100751.44
2022-08-05T06:33:09.738Z,100759.09
2022-08-05T06:36:07.576Z,100761.44
2022-08-05T06:38:35.617Z,100764.97
2022-08-05T06:41:05.490Z,100758.34
2022-08-05T06:43:51.726Z,100771.19
2022-08-05T06:46:30.032Z,100767.03
2022-08-05T06:49:01.119Z,100769.69
2022-08-05T06:51:30.924Z,100770.53
2022-08-05T06:54:00.156Z,100769.47
2022-08-05T06:56:33.368Z,100765.25
2022-08-05T06:59:09.366Z,100763.75
2022-08-05T07:01:40.817Z,100761.78
2022-08-05T07:04:10.879Z,100768.41
2022-08-05T07:06:42.324Z,100770.72
2022-08-05T07:09:10.878Z,100773.41
2022-08-05T07:11:39.972Z,100766.25
2022-08-05T07:14:37.112Z,100760.31
2022-08-05T07:17:59.397Z,100769.06
2022-08-05T07:22:43.095Z,100759.69
2022-08-05T07:25:53.904Z,100758.84
2022-08-05T07:28:05.971Z,100758.94
2022-08-05T07:30:39.564Z,100761.41
2022-08-05T07:33:15.711Z,100757.50
2022-08-05T07:36:04.203Z,100755.13
2022-08-05T07:38:42.498Z,100756.44
2022-08-05T07:42:09.336Z,100754.63
2022-08-05T07:44:14.140Z,100752.72
2022-08-05T07:46:49.754Z,100757.06
2022-08-05T07:49:19.087Z,100755.28
2022-08-05T07:51:53.938Z,100748.13
2022-08-05T07:54:31.744Z,100750.56
2022-08-05T07:57:17.594Z,100753.38
2022-08-05T07:59:52.274Z,100752.56
2022-08-05T08:02:30.764Z,100744.75
2022-08-05T08:04:59.696Z,100748.03
2022-08-05T08:07:29.143Z,100751.09
2022-08-05T08:10:07.692Z,100742.25
2022-08-05T08:12:49.773Z,100750.41
2022-08-05T08:15:17.910Z,100752.06
2022-08-05T08:18:09.711Z,100750.00
2022-08-05T08:21:02.837Z,100757.50
2022-08-05T08:24:02.126Z,100755.31
2022-08-05T08:26:27.129Z,100752.75
2022-08-05T08:29:21.837Z,100760.63
2022-08-05T08:31:48.360Z,100753.97
2022-08-05T08:34:29.926Z,100751.41
2022-08-05T08:37:04.788Z,100752.97
2022-08-05T08:39:37.405Z,100748.19
2022-08-05T08:42:32.478Z,100755.78
2022-08-05T08:45:24.690Z,100747.63
2022-08-05T08:48:12.739Z,100756.06
2022-08-05T08:51:03.272Z,100747.38
2022-08-05T08:53:28.877Z,100740.81
2022-08-05T08:56:03.626Z,100746.72
2022-08-05T08:58:43.839Z,100743.53
2022-08-05T09:01:17.379Z,100749.34
2022-08-05T09:03:57.317Z,100746.66
2022-08-05T09:06:29.348Z,100739.81
2022-08-05T09:09:01.070Z,100737.94
2022-08-05T09:11:51.525Z,100740.13
2022-08-05T09:14:57.621Z,100740.47
2022-08-05T09:17:09.663Z,100741.44
2022-08-05T09:19:55.093Z,100738.28
2022-08-05T09:22:30.754Z,100738.31
2022-08-05T09:25:14.091Z,100741.06
2022-08-05T09:28:04.891Z,100738.19
2022-08-05T09:30:35.270Z,100745.34
2022-08-05T09:33:05.004Z,100746.47
2022-08-05T09:35:32.860Z,100749.97
2022-08-05T09:38:12.809Z,100750.88
2022-08-05T09:40:52.279Z,100741.72
2022-08-05T09:43:28.066Z,100743.75
2022-08-05T09:46:32.939Z,100741.00
2022-08-05T09:49:19.027Z,100733.19
2022-08-05T09:51:48.953Z,100734.50
2022-08-05T09:54:31.676Z,100725.72
2022-08-05T09:57:01.159Z,100722.53
2022-08-05T09:59:36.911Z,100722.25
2022-08-05T10:02:05.471Z,100710.00
2022-08-05T10:04:39.376Z,100706.72
2022-08-05T10:07:20.213Z,100709.19
2022-08-05T10:10:13.732Z,100699.91
2022-08-05T10:12:49.191Z,100698.53
2022-08-05T10:15:20.750Z,100700.72
2022-08-05T10:18:05.856Z,100696.31
2022-08-05T10:20:48.337Z,100695.22
2022-08-05T10:23:55.724Z,100687.88
2022-08-05T10:26:15.472Z,100700.72
2022-08-05T10:28:45.014Z,100691.06
2022-08-05T10:32:51.958Z,100691.34
2022-08-05T10:34:07.109Z,100690.97
2022-08-05T10:36:38.592Z,100690.72
2022-08-05T10:39:15.397Z,100695.53
2022-08-05T10:42:02.677Z,100683.88
2022-08-05T10:44:32.459Z,100688.19
2022-08-05T10:47:26.540Z,100690.97
2022-08-05T10:50:32.250Z,100686.63
2022-08-05T10:52:59.924Z,100677.88
2022-08-05T10:55:27.780Z,100676.91
2022-08-05T10:58:11.214Z,100682.59
2022-08-05T11:00:47.389Z,100683.69
2022-08-05T11:03:25.313Z,100676.22
2022-08-05T11:06:04.054Z,100677.44
2022-08-05T11:08:38.121Z,100674.50
2022-08-05T11:11:44.574Z,100675.50
2022-08-05T11:14:49.507Z,100669.25
2022-08-05T11:17:59.072Z,100674.69
2022-08-05T11:20:44.593Z,100666.09
2022-08-05T11:23:56.894Z,100666.31
2022-08-05T11:26:29.085Z,100666.00
2022-08-05T11:29:11.616Z,100666.41
2022-08-05T11:31:56.485Z,100662.56
2022-08-05T11:34:52.037Z,100664.56
2022-08-05T11:38:26.446Z,100665.06
2022-08-05T11:41:01.707Z,100667.94
2022-08-05T11:44:06.418Z,100665.50
2022-08-05T11:46:37.592Z,100666.63
2022-08-05T11:49:07.994Z,100656.25
2022-08-05T11:51:43.793Z,100664.97
2022-08-05T11:54:33.508Z,100661.09
2022-08-05T11:57:08.325Z,100654.97
2022-08-05T11:59:53.034Z,100649.28
2022-08-05T12:02:32.025Z,100644.47
2022-08-05T12:05:08.112Z,100645.47
2022-08-05T12:08:08.264Z,100648.84
2022-08-05T12:10:38.672Z,100643.31
2022-08-05T12:13:28.161Z,100653.59
2022-08-05T12:16:14.894Z,100636.31
2022-08-05T12:18:49.578Z,100637.06
2022-08-05T12:21:51.646Z,100647.41
2022-08-05T12:24:24.620Z,100632.31
2022-08-05T12:26:54.457Z,100630.63
2022-08-05T12:29:25.036Z,100629.50
2022-08-05T12:31:56.144Z,100620.78
2022-08-05T12:34:32.911Z,100627.03
2022-08-05T12:37:10.556Z,100634.00
2022-08-05T12:39:39.989Z,100622.53
2022-08-05T12:42:14.831Z,100631.31
2022-08-05T12:44:44.739Z,100613.44
2022-08-05T12:47:17.149Z,100615.16
2022-08-05T12:50:03.725Z,100618.03
2022-08-05T12:52:39.562Z,100605.88
2022-08-05T12:55:22.430Z,100607.28
2022-08-05T12:58:49.150Z,100599.38
2022-08-05T13:02:02.674Z,100597.56
2022-08-05T13:03:42.233Z,100583.22
2022-08-05T13:06:17.275Z,100588.78
2022-08-05T13:08:51.986Z,100589.91
2022-08-05T13:11:59.801Z,100590.53
2022-08-05T13:14:24.957Z,100587.59
2022-08-05T13:17:10.594Z,100579.44
2022-08-05T13:19:52.181Z,100580.22
2022-08-05T13:22:29.748Z,100579.78
2022-08-05T13:25:19.397Z,100575.34
2022-08-05T13:27:52.308Z,100566.66
2022-08-05T13:30:34.451Z,100567.50
2022-08-05T13:33:03.531Z,100551.59
2022-08-05T13:35:47.477Z,100558.91
2022-08-05T13:38:30.823Z,100554.75
2022-08-05T13:41:04.300Z,100556.06
2022-08-05T13:43:43.962Z,100559.91
2022-08-05T13:46:35.945Z,100544.88
2022-08-05T13:49:10.237Z,100547.97
2022-08-05T13:51:41.525Z,100540.84
2022-08-05T13:54:15.288Z,100539.16
2022-08-05T13:56:50.971Z,100532.25
2022-08-05T13:59:23.781Z,100530.63
2022-08-05T14:01:57.651Z,100530.97
2022-08-05T14:04:52.315Z,100525.69
2022-08-05T14:07:55.536Z,100522.16
2022-08-05T14:10:12.932Z,100513.63
2022-08-05T14:12:42.924Z,100521.38
2022-08-05T14:16:04.560Z,100527.50
2022-08-05T14:18:04.839Z,100512.19
2022-08-05T14:20:32.903Z,100510.31
2022-08-05T14:23:01.556Z,100517.22
2022-08-05T14:25:30.437Z,100509.25
2022-08-05T14:27:58.779Z,100504.66
2022-08-05T14:30:28.136Z,100506.88
2022-08-05T14:32:56.639Z,100506.34
2022-08-05T14:35:37.577Z,100493.75
2022-08-05T14:38:32.426Z,100492.16
2022-08-05T14:41:05.799Z,100488.34
2022-08-05T14:44:01.666Z,100476.25
2022-08-05T14:46:28.945Z,100483.50
2022-08-05T14:49:06.875Z,100490.63
2022-08-05T14:51:37.718Z,100491.28
2022-08-05T14:54:28.854Z,100486.75
2022-08-05T14:56:56.501Z,100487.28
2022-08-05T14:59:29.811Z,100475.97
2022-08-05T15:02:15.024Z,100479.81
2022-08-05T15:04:47.906Z,100464.25
2022-08-05T15:08:05.534Z,100477.06
2022-08-05T15:10:05.149Z,100457.97
2022-08-05T15:12:58.044Z,100465.97
2022-08-05T15:15:55.369Z,100463.78
2022-08-05T15:18:15.792Z,100458.19
2022-08-05T15:20:46.037Z,100449.75
2022-08-05T15:23:15.257Z,100448.63
2022-08-05T15:25:52.581Z,100451.09
2022-08-05T15:28:27.042Z,100444.91
2022-08-05T15:30:57.596Z,100446.22
2022-08-05T15:34:05.686Z,100444.31
2022-08-05T15:36:17.528Z,100430.13
2022-08-05T15:40:42.759Z,100435.25
2022-08-05T15:41:58.299Z,100434.28
2022-08-05T15:44:30.212Z,100437.44
2022-08-05T15:47:00.898Z,100422.66
2022-08-05T15:49:53.610Z,100426.53
2022-08-05T15:52:51.600Z,100424.72
2022-08-05T15:55:15.601Z,100411.91
2022-08-05T15:57:45.260Z,100417.16
2022-08-05T16:00:16.851Z,100422.91
2022-08-05T16:02:53.499Z,100410.97
2022-08-05T16:05:22.930Z,100413.31
2022-08-05T16:07:57.160Z,100409.97
2022-08-05T16:10:25.584Z,100409.16
2022-08-05T16:12:56.189Z,100408.69
2022-08-05T16:15:24.427Z,100404.28
2022-08-05T16:18:00.820Z,100405.09
2022-08-05T16:20:32.484Z,100412.66
2022-08-05T16:23:00.918Z,100413.53
2022-08-05T16:25:32.249Z,100413.75
2022-08-05T16:28:06.513Z,100413.44
2022-08-05T16:30:38.389Z,100408.41
2022-08-05T16:33:06.872Z,100412.38
2022-08-05T16:35:42.443Z,100422.09
2022-08-05T16:38:23.830Z,100426.69
2022-08-05T16:41:01.450Z,100430.69
2022-08-05T16:43:34.026Z,100432.16
2022-08-05T16:46:23.622Z,100430.66
2022-08-05T16:48:52.668Z,100434.97
2022-08-05T16:51:20.597Z,100442.22
2022-08-05T16:54:03.188Z,100451.56
2022-08-05T16:56:34.925Z,100447.75
2022-08-05T16:59:07.987Z,100447.25
2022-08-05T17:01:54.950Z,100446.00
2022-08-05T17:04:28.547Z,100453.06
2022-08-05T17:07:01.393Z,100449.88
2022-08-05T17:09:30.329Z,100441.53
2022-08-05T17:12:06.711Z,100444.63
2022-08-05T17:14:37.218Z,100455.16
2022-08-05T17:17:14.516Z,100452.22
2022-08-05T17:19:46.241Z,100449.38
2022-08-05T17:22:24.697Z,100462.00
2022-08-05T17:24:58.010Z,100459.00
2022-08-05T17:27:33.995Z,100459.81
2022-08-05T17:30:11.827Z,100458.75
2022-08-05T17:32:46.910Z,100455.97
2022-08-05T17:35:20.673Z,100462.81
2022-08-05T17:37:49.013Z,100450.81
2022-08-05T17:40:22.543Z,100458.66
2022-08-05T17:42:53.092Z,100459.03
2022-08-05T17:45:23.036Z,100463.03
2022-08-05T17:47:54.887Z,100468.22
2022-08-05T17:50:29.645Z,100463.69
2022-08-05T17:53:00.562Z,100462.44
2022-08-05T17:55:37.353Z,100463.22
2022-08-05T17:58:12.171Z,100463.44
2022-08-05T18:00:44.912Z,100469.66
2022-08-05T18:03:55.857Z,100471.41
2022-08-05T18:06:12.405Z,100473.09
2022-08-05T18:08:52.730Z,100478.25
2022-08-05T18:11:24.793Z,100476.38
2022-08-05T18:14:07.159Z,100478.59
2022-08-05T18:16:46.901Z,100481.63
2022-08-05T18:19:22.697Z,100486.22
2022-08-05T18:22:08.863Z,100474.81
2022-08-05T18:24:39.973Z,100480.31
2022-08-05T18:27:12.626Z,100487.69
2022-08-05T18:29:53.625Z,100486.31
2022-08-05T18:32:28.361Z,100486.06
2022-08-05T18:34:58.003Z,100488.56
2022-08-05T18:37:34.717Z,100493.44
2022-08-05T18:40:33.857Z,100490.22
2022-08-05T18:42:58.949Z,100489.66
2022-08-05T18:45:41.425Z,100497.03
2022-08-05T18:48:11.377Z,100489.94
2022-08-05T18:51:01.501Z,100498.69
2022-08-05T18:53:29.985Z,100498.38
2022-08-05T18:56:02.169Z,100494.56
2022-08-05T18:58:40.471Z,100492.91
2022-08-05T19:01:10.717Z,100496.44
2022-08-05T19:03:54.880Z,100499.97
2022-08-05T19:06:37.280Z,100502.13
2022-08-05T19:09:12.202Z,100507.84
2022-08-05T19:11:59.954Z,100510.88
2022-08-05T19:14:53.356Z,100522.75
2022-08-05T19:17:17.042Z,100529.56
2022-08-05T19:19:46.784Z,100533.63
2022-08-05T19:22:17.139Z,100540.16
2022-08-05T19:24:56.503Z,100544.34
2022-08-05T19:27:25.273Z,100542.63
2022-08-05T19:29:58.594Z,100553.91
2022-08-05T19:32:27.810Z,100560.63
2022-08-05T19:34:56.780Z,100560.59
2022-08-05T19:37:35.065Z,100565.56
2022-08-05T19:40:14.966Z,100573.97
2022-08-05T19:43:04.731Z,100575.38
2022-08-05T19:45:36.593Z,100590.50
2022-08-05T19:48:05.555Z,100592.75
2022-08-05T19:50:35.019Z,100601.13
2022-08-05T19:53:09.750Z,100592.78
2022-08-05T19:56:12.439Z,100599.59
2022-08-05T19:58:28.660Z,100598.41
2022-08-05T20:00:59.144Z,100606.19
2022-08-05T20:03:27.549Z,100601.72
2022-08-05T20:06:15.431Z,100610.44
2022-08-05T20:08:47.619Z,100606.09
2022-08-05T20:11:18.074Z,100617.28
2022-08-05T20:13:58.804Z,100616.81
2022-08-05T20:16:35.212Z,100616.75
2022-08-05T20:19:04.381Z,100617.53
2022-08-05T20:21:32.162Z,100625.88
2022-08-05T20:24:00.936Z,100619.19
2022-08-05T20:26:29.128Z,100629.88
2022-08-05T20:29:00.533Z,100635.25
2022-08-05T20:31:42.908Z,100631.94
2022-08-05T20:34:17.228Z,100638.28
2022-08-05T20:36:44.778Z,100639.69
2022-08-05T20:39:16.153Z,100647.41
2022-08-05T20:41:47.769Z,100645.56
2022-08-05T20:44:30.146Z,100648.09
2022-08-05T20:47:00.415Z,100652.59
2022-08-05T20:49:28.610Z,100656.19
2022-08-05T20:51:57.917Z,100658.31
2022-08-05T20:54:43.463Z,100666.81
2022-08-05T20:57:24.780Z,100671.19
2022-08-05T21:00:19.689Z,100669.72
2022-08-05T21:02:54.568Z,100673.94
2022-08-05T21:05:24.870Z,100670.09
2022-08-05T21:07:53.042Z,100667.53
2022-08-05T21:10:21.640Z,100668.16
2022-08-05T21:12:57.603Z,100667.97
2022-08-05T21:15:33.860Z,100659.56
2022-08-05T21:18:02.182Z,100666.88
2022-08-05T21:20:32.911Z,100672.91
2022-08-05T21:23:03.070Z,100670.19
2022-08-05T21:25:34.093Z,100673.63
2022-08-05T21:28:03.287Z,100675.44
2022-08-05T21:30:31.721Z,100681.19
2022-08-05T21:33:01.757Z,100678.06
2022-08-05T21:35:55.326Z,100682.84
2022-08-05T21:38:19.286Z,100693.81
2022-08-05T21:40:46.839Z,100699.88
2022-08-05T21:43:17.863Z,100699.53
2022-08-05T21:45:57.811Z,100697.94
2022-08-05T21:48:29.450Z,100696.56
2022-08-05T21:50:59.495Z,100693.03
2022-08-05T21:53:28.027Z,100694.81
2022-08-05T21:56:05.236Z,100693.09
2022-08-05T21:58:42.073Z,100693.50
2022-08-05T22:01:10.708Z,100694.34
2022-08-05T22:03:52.792Z,100699.53
2022-08-05T22:06:35.348Z,100700.09
2022-08-05T22:09:13.751Z,100688.97
2022-08-05T22:11:46.845Z,100688.97
2022-08-05T22:14:37.368Z,100687.84
2022-08-05T22:17:07.072Z,100678.06
2022-08-05T22:20:00.423Z,100685.38
2022-08-05T22:22:27.254Z,100690.75
2022-08-05T22:26:10.773Z,100695.28
2022-08-05T22:28:25.665Z,100689.22
2022-08-05T22:30:56.015Z,100689.16
2022-08-05T22:33:57.424Z,100690.47
2022-08-05T22:36:15.267Z,100686.25
2022-08-05T22:38:48.231Z,100688.34
2022-08-05T22:42:04.552Z,100694.03
2022-08-05T22:44:07.989Z,100699.31
2022-08-05T22:46:39.729Z,100685.53
2022-08-05T22:49:23.418Z,100684.00
2022-08-05T22:52:05.453Z,100683.03
2022-08-05T22:54:36.744Z,100681.41
2022-08-05T22:57:06.236Z,100679.88
2022-08-05T22:59:46.248Z,100679.78
2022-08-05T23:02:29.038Z,100676.34
2022-08-05T23:05:01.870Z,100674.53
2022-08-05T23:07:43.761Z,100674.50
2022-08-05T23:10:14.553Z,100669.22
2022-08-05T23:12:43.057Z,100665.22
2022-08-05T23:15:12.369Z,100663.31
2022-08-05T23:18:00.801Z,100661.81
2022-08-05T23:20:28.081Z,100656.63
2022-08-05T23:22:58.646Z,100657.78
2022-08-05T23:25:53.250Z,100649.69
2022-08-05T23:28:15.894Z,100642.16
2022-08-05T23:30:53.799Z,100642.50
2022-08-05T23:34:02.963Z,100641.53
2022-08-05T23:36:13.633Z,100647.06
2022-08-05T23:38:42.767Z,100652.31
2022-08-05T23:41:11.445Z,100653.41
2022-08-05T23:44:05.045Z,100645.66
2022-08-05T23:46:27.585Z,100642.81
2022-08-05T23:49:00.567Z,100640.00
2022-08-05T23:51:52.621Z,100635.34
2022-08-05T23:54:36.599Z,100635.34
2022-08-05T23:57:08.310Z,100630.69
